sensor_id;sensor_type;location;lat;lon;timestamp;temperature;humidity
31575;DHT22;18182;1.328;103.810;2022-07-29T00:00:09;29.90;99.90
31575;DHT22;18182;1.328;103.810;2022-07-29T00:02:35;29.90;99.90
31575;DHT22;18182;1.328;103.810;2022-07-29T00:05:02;29.90;99.90
31575;DHT22;18182;1.328;103.810;2022-07-29T00:07:28;29.90;99.90
31575;DHT22;18182;1.328;103.810;2022-07-29T00:09:54;29.90;99.90
31575;DHT22;18182;1.328;103.810;2022-07-29T00:12:22;29.90;99.90
31575;DHT22;18182;1.328;103.810;2022-07-29T00:14:48;30.00;99.90
31575;DHT22;18182;1.328;103.810;2022-07-29T00:17:15;30.00;99.90
31575;DHT22;18182;1.328;103.810;2022-07-29T00:19:41;30.00;99.90
31575;DHT22;18182;1.328;103.810;2022-07-29T00:22:07;30.10;99.90
31575;DHT22;18182;1.328;103.810;2022-07-29T00:24:33;30.20;99.90
31575;DHT22;18182;1.328;103.810;2022-07-29T00:26:59;30.30;99.90
31575;DHT22;18182;1.328;103.810;2022-07-29T00:29:25;30.30;99.90
31575;DHT22;18182;1.328;103.810;2022-07-29T00:31:51;30.30;99.90
31575;DHT22;18182;1.328;103.810;2022-07-29T00:34:17;30.30;99.90
31575;DHT22;18182;1.328;103.810;2022-07-29T00:37:01;30.40;99.90
31575;DHT22;18182;1.328;103.810;2022-07-29T00:39:28;30.40;99.90
31575;DHT22;18182;1.328;103.810;2022-07-29T00:41:54;30.50;99.90
31575;DHT22;18182;1.328;103.810;2022-07-29T00:44:21;30.60;99.90
31575;DHT22;18182;1.328;103.810;2022-07-29T00:46:47;30.60;99.90
31575;DHT22;18182;1.328;103.810;2022-07-29T00:49:13;30.60;99.90
31575;DHT22;18182;1.328;103.810;2022-07-29T00:51:39;30.60;99.90
31575;DHT22;18182;1.328;103.810;2022-07-29T00:54:05;30.60;99.90
31575;DHT22;18182;1.328;103.810;2022-07-29T00:56:31;30.60;99.90
31575;DHT22;18182;1.328;103.810;2022-07-29T00:58:58;30.50;99.90
31575;DHT22;18182;1.328;103.810;2022-07-29T01:01:25;30.60;99.90
31575;DHT22;18182;1.328;103.810;2022-07-29T01:03:51;30.50;99.90
31575;DHT22;18182;1.328;103.810;2022-07-29T01:06:18;30.60;99.90
31575;DHT22;18182;1.328;103.810;2022-07-29T01:08:48;30.60;99.90
31575;DHT22;18182;1.328;103.810;2022-07-29T01:11:15;30.60;99.90
31575;DHT22;18182;1.328;103.810;2022-07-29T01:13:42;30.60;99.90
31575;DHT22;18182;1.328;103.810;2022-07-29T01:16:10;30.60;99.90
31575;DHT22;18182;1.328;103.810;2022-07-29T01:18:42;30.50;99.90
31575;DHT22;18182;1.328;103.810;2022-07-29T01:28:58;30.50;99.90
31575;DHT22;18182;1.328;103.810;2022-07-29T01:31:33;30.60;99.90
31575;DHT22;18182;1.328;103.810;2022-07-29T01:34:02;30.60;99.90
31575;DHT22;18182;1.328;103.810;2022-07-29T01:36:31;30.60;99.90
31575;DHT22;18182;1.328;103.810;2022-07-29T01:39:08;30.60;99.90
31575;DHT22;18182;1.328;103.810;2022-07-29T01:41:37;30.50;99.90
31575;DHT22;18182;1.328;103.810;2022-07-29T01:44:10;30.50;99.90
31575;DHT22;18182;1.328;103.810;2022-07-29T01:46:38;30.60;99.90
31575;DHT22;18182;1.328;103.810;2022-07-29T01:51:33;30.70;99.90
31575;DHT22;18182;1.328;103.810;2022-07-29T01:56:32;30.90;99.90
31575;DHT22;18182;1.328;103.810;2022-07-29T01:58:59;31.10;99.90
31575;DHT22;18182;1.328;103.810;2022-07-29T02:01:27;31.20;99.90
31575;DHT22;18182;1.328;103.810;2022-07-29T02:03:55;31.20;99.90
31575;DHT22;18182;1.328;103.810;2022-07-29T02:06:22;31.40;99.90
31575;DHT22;18182;1.328;103.810;2022-07-29T02:08:49;31.40;99.90
31575;DHT22;18182;1.328;103.810;2022-07-29T02:11:17;31.30;99.90
31575;DHT22;18182;1.328;103.810;2022-07-29T02:13:43;31.40;99.90
31575;DHT22;18182;1.328;103.810;2022-07-29T02:16:10;31.40;99.90
31575;DHT22;18182;1.328;103.810;2022-07-29T02:18:37;31.50;99.90
31575;DHT22;18182;1.328;103.810;2022-07-29T02:21:04;31.50;99.90
31575;DHT22;18182;1.328;103.810;2022-07-29T02:23:31;31.60;99.90
31575;DHT22;18182;1.328;103.810;2022-07-29T02:25:58;31.70;99.90
31575;DHT22;18182;1.328;103.810;2022-07-29T02:28:25;31.70;99.90
31575;DHT22;18182;1.328;103.810;2022-07-29T02:30:53;31.70;99.90
31575;DHT22;18182;1.328;103.810;2022-07-29T02:33:20;31.70;99.90
31575;DHT22;18182;1.328;103.810;2022-07-29T02:35:47;31.60;99.90
31575;DHT22;18182;1.328;103.810;2022-07-29T02:38:14;31.50;99.90
31575;DHT22;18182;1.328;103.810;2022-07-29T02:40:59;31.50;99.90
31575;DHT22;18182;1.328;103.810;2022-07-29T02:43:26;31.50;99.90
31575;DHT22;18182;1.328;103.810;2022-07-29T02:45:53;31.50;99.90
31575;DHT22;18182;1.328;103.810;2022-07-29T02:48:22;31.50;99.90
31575;DHT22;18182;1.328;103.810;2022-07-29T02:50:53;31.50;99.90
31575;DHT22;18182;1.328;103.810;2022-07-29T02:53:24;31.40;99.90
31575;DHT22;18182;1.328;103.810;2022-07-29T02:55:58;31.40;99.90
31575;DHT22;18182;1.328;103.810;2022-07-29T02:58:35;31.30;99.90
31575;DHT22;18182;1.328;103.810;2022-07-29T03:01:04;31.40;99.90
31575;DHT22;18182;1.328;103.810;2022-07-29T03:03:36;31.50;99.90
31575;DHT22;18182;1.328;103.810;2022-07-29T03:06:03;31.50;99.90
31575;DHT22;18182;1.328;103.810;2022-07-29T03:08:29;31.40;99.90
31575;DHT22;18182;1.328;103.810;2022-07-29T03:10:56;31.40;99.90
31575;DHT22;18182;1.328;103.810;2022-07-29T03:13:23;31.40;99.90
31575;DHT22;18182;1.328;103.810;2022-07-29T03:15:49;31.50;99.90
31575;DHT22;18182;1.328;103.810;2022-07-29T03:18:16;31.50;99.90
31575;DHT22;18182;1.328;103.810;2022-07-29T03:20:42;31.50;99.90
31575;DHT22;18182;1.328;103.810;2022-07-29T03:23:08;31.60;99.90
31575;DHT22;18182;1.328;103.810;2022-07-29T03:25:34;31.70;99.90
31575;DHT22;18182;1.328;103.810;2022-07-29T03:28:00;31.70;99.90
31575;DHT22;18182;1.328;103.810;2022-07-29T03:30:27;31.70;99.90
31575;DHT22;18182;1.328;103.810;2022-07-29T03:32:56;31.70;99.90
31575;DHT22;18182;1.328;103.810;2022-07-29T03:35:22;31.60;99.90
31575;DHT22;18182;1.328;103.810;2022-07-29T03:37:48;31.50;99.90
31575;DHT22;18182;1.328;103.810;2022-07-29T03:40:16;31.40;99.90
31575;DHT22;18182;1.328;103.810;2022-07-29T03:42:43;31.40;99.90
31575;DHT22;18182;1.328;103.810;2022-07-29T03:45:12;31.40;99.90
31575;DHT22;18182;1.328;103.810;2022-07-29T03:47:42;31.40;99.90
31575;DHT22;18182;1.328;103.810;2022-07-29T03:50:11;31.40;99.90
31575;DHT22;18182;1.328;103.810;2022-07-29T03:52:39;31.40;99.90
31575;DHT22;18182;1.328;103.810;2022-07-29T03:55:06;31.50;99.90
31575;DHT22;18182;1.328;103.810;2022-07-29T03:57:33;31.60;99.90
31575;DHT22;18182;1.328;103.810;2022-07-29T04:00:00;31.70;99.90
31575;DHT22;18182;1.328;103.810;2022-07-29T04:02:27;31.80;99.90
31575;DHT22;18182;1.328;103.810;2022-07-29T04:04:53;31.70;99.90
31575;DHT22;18182;1.328;103.810;2022-07-29T04:07:19;31.70;99.90
31575;DHT22;18182;1.328;103.810;2022-07-29T04:09:45;31.70;99.90
31575;DHT22;18182;1.328;103.810;2022-07-29T04:12:11;31.60;99.90
31575;DHT22;18182;1.328;103.810;2022-07-29T04:14:38;31.70;99.90
31575;DHT22;18182;1.328;103.810;2022-07-29T04:17:04;31.70;99.90
31575;DHT22;18182;1.328;103.810;2022-07-29T04:19:31;31.70;99.90
31575;DHT22;18182;1.328;103.810;2022-07-29T04:21:57;31.90;99.90
31575;DHT22;18182;1.328;103.810;2022-07-29T04:24:24;32.00;99.90
31575;DHT22;18182;1.328;103.810;2022-07-29T04:26:51;31.90;99.90
31575;DHT22;18182;1.328;103.810;2022-07-29T04:29:17;31.80;99.90
31575;DHT22;18182;1.328;103.810;2022-07-29T04:31:43;31.90;99.90
31575;DHT22;18182;1.328;103.810;2022-07-29T04:34:10;31.80;99.90
31575;DHT22;18182;1.328;103.810;2022-07-29T04:36:36;31.80;99.90
31575;DHT22;18182;1.328;103.810;2022-07-29T04:39:02;31.60;99.90
31575;DHT22;18182;1.328;103.810;2022-07-29T04:41:28;31.50;99.90
31575;DHT22;18182;1.328;103.810;2022-07-29T04:43:55;31.50;99.90
31575;DHT22;18182;1.328;103.810;2022-07-29T04:46:21;31.50;99.90
31575;DHT22;18182;1.328;103.810;2022-07-29T04:48:47;31.40;99.90
31575;DHT22;18182;1.328;103.810;2022-07-29T04:51:14;31.30;99.90
31575;DHT22;18182;1.328;103.810;2022-07-29T04:53:40;31.10;98.70
31575;DHT22;18182;1.328;103.810;2022-07-29T04:56:06;30.90;99.90
31575;DHT22;18182;1.328;103.810;2022-07-29T04:58:35;30.70;99.90
31575;DHT22;18182;1.328;103.810;2022-07-29T05:01:02;30.60;99.90
31575;DHT22;18182;1.328;103.810;2022-07-29T05:03:28;30.60;99.90
31575;DHT22;18182;1.328;103.810;2022-07-29T05:05:55;30.40;99.90
31575;DHT22;18182;1.328;103.810;2022-07-29T05:08:21;30.20;99.90
31575;DHT22;18182;1.328;103.810;2022-07-29T05:10:47;30.20;99.90
31575;DHT22;18182;1.328;103.810;2022-07-29T05:13:13;30.10;99.90
31575;DHT22;18182;1.328;103.810;2022-07-29T05:15:39;30.00;99.90
31575;DHT22;18182;1.328;103.810;2022-07-29T05:18:06;30.00;99.90
31575;DHT22;18182;1.328;103.810;2022-07-29T05:20:32;29.90;99.90
31575;DHT22;18182;1.328;103.810;2022-07-29T05:23:00;29.90;99.90
31575;DHT22;18182;1.328;103.810;2022-07-29T05:25:26;29.90;99.90
31575;DHT22;18182;1.328;103.810;2022-07-29T05:27:53;29.90;99.90
31575;DHT22;18182;1.328;103.810;2022-07-29T05:30:20;29.80;99.90
31575;DHT22;18182;1.328;103.810;2022-07-29T05:32:46;29.80;99.90
31575;DHT22;18182;1.328;103.810;2022-07-29T05:35:13;29.80;99.90
31575;DHT22;18182;1.328;103.810;2022-07-29T05:37:39;29.80;99.90
31575;DHT22;18182;1.328;103.810;2022-07-29T05:40:06;29.80;99.90
31575;DHT22;18182;1.328;103.810;2022-07-29T05:42:32;29.90;99.90
31575;DHT22;18182;1.328;103.810;2022-07-29T05:44:59;29.90;99.90
31575;DHT22;18182;1.328;103.810;2022-07-29T05:47:26;29.90;99.90
31575;DHT22;18182;1.328;103.810;2022-07-29T05:49:52;29.90;99.90
31575;DHT22;18182;1.328;103.810;2022-07-29T05:52:19;30.00;99.90
31575;DHT22;18182;1.328;103.810;2022-07-29T05:54:45;29.90;99.90
31575;DHT22;18182;1.328;103.810;2022-07-29T05:57:15;30.00;99.90
31575;DHT22;18182;1.328;103.810;2022-07-29T05:59:42;30.00;99.90
31575;DHT22;18182;1.328;103.810;2022-07-29T06:02:08;30.10;99.90
31575;DHT22;18182;1.328;103.810;2022-07-29T06:04:34;30.10;99.90
31575;DHT22;18182;1.328;103.810;2022-07-29T06:07:00;30.10;99.90
31575;DHT22;18182;1.328;103.810;2022-07-29T06:09:27;30.20;99.90
31575;DHT22;18182;1.328;103.810;2022-07-29T06:11:53;30.30;99.90
31575;DHT22;18182;1.328;103.810;2022-07-29T06:14:19;30.30;99.90
31575;DHT22;18182;1.328;103.810;2022-07-29T06:16:46;30.30;99.90
31575;DHT22;18182;1.328;103.810;2022-07-29T06:19:12;30.30;99.90
31575;DHT22;18182;1.328;103.810;2022-07-29T06:21:41;30.40;99.90
31575;DHT22;18182;1.328;103.810;2022-07-29T06:24:08;30.60;99.90
31575;DHT22;18182;1.328;103.810;2022-07-29T06:26:34;30.70;99.90
31575;DHT22;18182;1.328;103.810;2022-07-29T06:29:00;30.90;99.90
31575;DHT22;18182;1.328;103.810;2022-07-29T06:31:26;31.00;99.90
31575;DHT22;18182;1.328;103.810;2022-07-29T06:33:52;31.00;99.90
31575;DHT22;18182;1.328;103.810;2022-07-29T06:36:18;31.00;99.90
31575;DHT22;18182;1.328;103.810;2022-07-29T06:38:44;31.00;99.90
31575;DHT22;18182;1.328;103.810;2022-07-29T06:41:10;31.00;99.90
31575;DHT22;18182;1.328;103.810;2022-07-29T06:43:38;30.90;99.90
31575;DHT22;18182;1.328;103.810;2022-07-29T06:46:07;30.80;99.90
31575;DHT22;18182;1.328;103.810;2022-07-29T06:48:34;30.80;99.90
31575;DHT22;18182;1.328;103.810;2022-07-29T06:51:02;30.70;99.90
31575;DHT22;18182;1.328;103.810;2022-07-29T06:53:28;30.80;99.90
31575;DHT22;18182;1.328;103.810;2022-07-29T06:55:54;30.70;99.90
31575;DHT22;18182;1.328;103.810;2022-07-29T06:58:20;30.70;99.90
31575;DHT22;18182;1.328;103.810;2022-07-29T07:00:47;30.80;99.90
31575;DHT22;18182;1.328;103.810;2022-07-29T07:03:13;30.80;99.90
31575;DHT22;18182;1.328;103.810;2022-07-29T07:05:40;30.80;99.90
31575;DHT22;18182;1.328;103.810;2022-07-29T07:08:06;30.80;99.90
31575;DHT22;18182;1.328;103.810;2022-07-29T07:10:33;30.80;99.90
31575;DHT22;18182;1.328;103.810;2022-07-29T07:13:00;30.80;99.90
31575;DHT22;18182;1.328;103.810;2022-07-29T07:15:27;30.80;99.90
31575;DHT22;18182;1.328;103.810;2022-07-29T07:17:53;30.70;99.90
31575;DHT22;18182;1.328;103.810;2022-07-29T07:20:19;30.70;99.90
31575;DHT22;18182;1.328;103.810;2022-07-29T07:22:45;30.70;99.90
31575;DHT22;18182;1.328;103.810;2022-07-29T07:25:12;30.70;99.90
31575;DHT22;18182;1.328;103.810;2022-07-29T07:27:38;30.70;99.90
31575;DHT22;18182;1.328;103.810;2022-07-29T07:30:04;30.90;99.90
31575;DHT22;18182;1.328;103.810;2022-07-29T07:32:34;31.00;99.90
31575;DHT22;18182;1.328;103.810;2022-07-29T07:35:01;31.00;99.90
31575;DHT22;18182;1.328;103.810;2022-07-29T07:37:27;31.10;99.90
31575;DHT22;18182;1.328;103.810;2022-07-29T07:39:53;31.00;99.90
31575;DHT22;18182;1.328;103.810;2022-07-29T07:42:20;31.10;99.90
31575;DHT22;18182;1.328;103.810;2022-07-29T07:44:46;31.20;99.90
31575;DHT22;18182;1.328;103.810;2022-07-29T07:47:14;31.30;99.90
31575;DHT22;18182;1.328;103.810;2022-07-29T07:49:48;31.30;99.90
31575;DHT22;18182;1.328;103.810;2022-07-29T07:52:17;31.30;99.90
31575;DHT22;18182;1.328;103.810;2022-07-29T07:54:44;31.30;99.90
31575;DHT22;18182;1.328;103.810;2022-07-29T07:57:13;31.50;99.90
31575;DHT22;18182;1.328;103.810;2022-07-29T07:59:39;31.50;99.90
31575;DHT22;18182;1.328;103.810;2022-07-29T08:02:06;31.50;99.90
31575;DHT22;18182;1.328;103.810;2022-07-29T08:04:33;31.40;99.90
31575;DHT22;18182;1.328;103.810;2022-07-29T08:07:00;31.40;99.90
31575;DHT22;18182;1.328;103.810;2022-07-29T08:09:27;31.20;99.90
31575;DHT22;18182;1.328;103.810;2022-07-29T08:11:53;31.10;99.90
31575;DHT22;18182;1.328;103.810;2022-07-29T08:14:20;31.00;99.90
31575;DHT22;18182;1.328;103.810;2022-07-29T08:16:46;31.00;99.90
31575;DHT22;18182;1.328;103.810;2022-07-29T08:19:13;30.90;99.90
31575;DHT22;18182;1.328;103.810;2022-07-29T08:21:39;30.90;99.90
31575;DHT22;18182;1.328;103.810;2022-07-29T08:24:05;30.90;99.90
31575;DHT22;18182;1.328;103.810;2022-07-29T08:26:50;30.90;99.90
31575;DHT22;18182;1.328;103.810;2022-07-29T08:29:16;30.90;99.90
31575;DHT22;18182;1.328;103.810;2022-07-29T08:31:42;30.90;99.90
31575;DHT22;18182;1.328;103.810;2022-07-29T08:34:08;30.90;99.90
31575;DHT22;18182;1.328;103.810;2022-07-29T08:36:34;30.80;99.90
31575;DHT22;18182;1.328;103.810;2022-07-29T08:39:01;30.70;99.90
31575;DHT22;18182;1.328;103.810;2022-07-29T08:41:28;30.70;99.90
31575;DHT22;18182;1.328;103.810;2022-07-29T08:43:54;30.70;99.90
31575;DHT22;18182;1.328;103.810;2022-07-29T08:46:21;30.70;99.90
31575;DHT22;18182;1.328;103.810;2022-07-29T08:48:47;30.70;99.90
31575;DHT22;18182;1.328;103.810;2022-07-29T08:51:14;30.70;99.90
31575;DHT22;18182;1.328;103.810;2022-07-29T08:53:44;30.60;99.90
31575;DHT22;18182;1.328;103.810;2022-07-29T08:56:11;30.70;99.90
31575;DHT22;18182;1.328;103.810;2022-07-29T08:58:38;30.70;99.90
31575;DHT22;18182;1.328;103.810;2022-07-29T09:01:07;30.70;99.90
31575;DHT22;18182;1.328;103.810;2022-07-29T09:03:36;30.70;99.90
31575;DHT22;18182;1.328;103.810;2022-07-29T09:06:03;30.70;99.90
31575;DHT22;18182;1.328;103.810;2022-07-29T09:08:33;30.90;99.90
31575;DHT22;18182;1.328;103.810;2022-07-29T09:11:02;30.90;99.90
31575;DHT22;18182;1.328;103.810;2022-07-29T09:13:28;30.90;99.90
31575;DHT22;18182;1.328;103.810;2022-07-29T09:15:55;31.00;99.90
31575;DHT22;18182;1.328;103.810;2022-07-29T09:21:00;30.90;99.90
31575;DHT22;18182;1.328;103.810;2022-07-29T09:26:29;30.90;99.90
31575;DHT22;18182;1.328;103.810;2022-07-29T09:28:56;30.90;99.90
31575;DHT22;18182;1.328;103.810;2022-07-29T09:31:41;30.90;99.90
31575;DHT22;18182;1.328;103.810;2022-07-29T09:34:12;30.90;99.90
31575;DHT22;18182;1.328;103.810;2022-07-29T09:36:42;31.00;99.90
31575;DHT22;18182;1.328;103.810;2022-07-29T09:39:09;31.00;99.90
31575;DHT22;18182;1.328;103.810;2022-07-29T09:41:51;31.00;99.90
31575;DHT22;18182;1.328;103.810;2022-07-29T09:44:21;31.00;99.90
31575;DHT22;18182;1.328;103.810;2022-07-29T09:49:19;30.60;99.90
31575;DHT22;18182;1.328;103.810;2022-07-29T09:51:46;30.20;99.90
31575;DHT22;18182;1.328;103.810;2022-07-29T09:54:25;29.90;99.90
31575;DHT22;18182;1.328;103.810;2022-07-29T09:56:52;29.70;99.90
31575;DHT22;18182;1.328;103.810;2022-07-29T09:59:18;29.50;99.90
31575;DHT22;18182;1.328;103.810;2022-07-29T10:01:52;29.30;99.90
31575;DHT22;18182;1.328;103.810;2022-07-29T10:04:18;29.00;99.90
31575;DHT22;18182;1.328;103.810;2022-07-29T10:07:01;28.70;99.90
31575;DHT22;18182;1.328;103.810;2022-07-29T10:09:28;28.40;99.90
31575;DHT22;18182;1.328;103.810;2022-07-29T10:12:04;28.00;99.90
31575;DHT22;18182;1.328;103.810;2022-07-29T10:14:31;27.90;99.90
31575;DHT22;18182;1.328;103.810;2022-07-29T10:16:58;27.80;99.90
31575;DHT22;18182;1.328;103.810;2022-07-29T10:19:25;27.80;99.90
31575;DHT22;18182;1.328;103.810;2022-07-29T10:21:51;27.70;99.90
31575;DHT22;18182;1.328;103.810;2022-07-29T10:24:18;27.60;99.90
31575;DHT22;18182;1.328;103.810;2022-07-29T10:26:44;27.50;99.90
31575;DHT22;18182;1.328;103.810;2022-07-29T10:29:12;27.50;99.90
31575;DHT22;18182;1.328;103.810;2022-07-29T10:31:49;27.50;99.90
31575;DHT22;18182;1.328;103.810;2022-07-29T10:34:23;27.50;99.90
31575;DHT22;18182;1.328;103.810;2022-07-29T10:37:00;27.50;99.90
31575;DHT22;18182;1.328;103.810;2022-07-29T10:42:05;27.50;99.90
31575;DHT22;18182;1.328;103.810;2022-07-29T10:44:35;27.50;99.90
31575;DHT22;18182;1.328;103.810;2022-07-29T10:47:05;27.50;99.90
31575;DHT22;18182;1.328;103.810;2022-07-29T10:49:31;27.50;99.90
31575;DHT22;18182;1.328;103.810;2022-07-29T10:59:38;27.60;99.90
31575;DHT22;18182;1.328;103.810;2022-07-29T11:07:18;28.20;99.90
31575;DHT22;18182;1.328;103.810;2022-07-29T11:10:09;28.30;99.90
31575;DHT22;18182;1.328;103.810;2022-07-29T11:15:00;28.50;99.90
31575;DHT22;18182;1.328;103.810;2022-07-29T11:17:28;28.50;99.90
31575;DHT22;18182;1.328;103.810;2022-07-29T11:22:39;28.50;99.90
31575;DHT22;18182;1.328;103.810;2022-07-29T11:25:15;28.40;99.90
31575;DHT22;18182;1.328;103.810;2022-07-29T11:27:41;28.40;99.90
31575;DHT22;18182;1.328;103.810;2022-07-29T11:30:08;28.30;99.90
31575;DHT22;18182;1.328;103.810;2022-07-29T11:32:35;28.30;99.90
31575;DHT22;18182;1.328;103.810;2022-07-29T11:35:14;28.30;99.90
31575;DHT22;18182;1.328;103.810;2022-07-29T11:37:40;28.30;99.90
31575;DHT22;18182;1.328;103.810;2022-07-29T11:40:08;28.30;99.90
31575;DHT22;18182;1.328;103.810;2022-07-29T11:47:28;28.30;99.90
31575;DHT22;18182;1.328;103.810;2022-07-29T11:49:55;28.20;99.90
31575;DHT22;18182;1.328;103.810;2022-07-29T11:52:22;28.10;99.90
31575;DHT22;18182;1.328;103.810;2022-07-29T11:54:49;28.10;99.90
31575;DHT22;18182;1.328;103.810;2022-07-29T11:57:16;28.20;99.90
31575;DHT22;18182;1.328;103.810;2022-07-29T11:59:43;28.30;99.90
31575;DHT22;18182;1.328;103.810;2022-07-29T12:02:10;28.30;99.90
31575;DHT22;18182;1.328;103.810;2022-07-29T12:04:49;28.30;99.90
31575;DHT22;18182;1.328;103.810;2022-07-29T12:07:15;28.30;99.90
31575;DHT22;18182;1.328;103.810;2022-07-29T12:09:52;28.20;99.90
31575;DHT22;18182;1.328;103.810;2022-07-29T12:12:19;28.20;99.90
31575;DHT22;18182;1.328;103.810;2022-07-29T12:14:45;28.30;99.90
31575;DHT22;18182;1.328;103.810;2022-07-29T12:17:26;28.30;99.90
31575;DHT22;18182;1.328;103.810;2022-07-29T12:19:53;28.30;99.90
31575;DHT22;18182;1.328;103.810;2022-07-29T12:22:30;28.30;99.90
31575;DHT22;18182;1.328;103.810;2022-07-29T12:25:01;28.30;99.90
31575;DHT22;18182;1.328;103.810;2022-07-29T12:27:28;28.20;99.90
31575;DHT22;18182;1.328;103.810;2022-07-29T12:29:57;28.20;99.90
31575;DHT22;18182;1.328;103.810;2022-07-29T12:32:30;28.20;99.90
31575;DHT22;18182;1.328;103.810;2022-07-29T12:34:57;28.20;99.90
31575;DHT22;18182;1.328;103.810;2022-07-29T12:37:23;28.20;99.90
31575;DHT22;18182;1.328;103.810;2022-07-29T12:39:49;28.30;99.90
31575;DHT22;18182;1.328;103.810;2022-07-29T12:42:15;28.30;99.90
31575;DHT22;18182;1.328;103.810;2022-07-29T12:44:44;28.30;99.90
31575;DHT22;18182;1.328;103.810;2022-07-29T12:47:11;28.30;99.90
31575;DHT22;18182;1.328;103.810;2022-07-29T12:49:38;28.30;99.90
31575;DHT22;18182;1.328;103.810;2022-07-29T12:55:09;28.40;99.90
31575;DHT22;18182;1.328;103.810;2022-07-29T12:57:45;28.50;99.90
31575;DHT22;18182;1.328;103.810;2022-07-29T13:00:12;28.50;99.90
31575;DHT22;18182;1.328;103.810;2022-07-29T13:02:40;28.50;99.90
31575;DHT22;18182;1.328;103.810;2022-07-29T13:05:07;28.60;99.90
31575;DHT22;18182;1.328;103.810;2022-07-29T13:07:38;28.60;99.90
31575;DHT22;18182;1.328;103.810;2022-07-29T13:15:29;28.50;99.90
31575;DHT22;18182;1.328;103.810;2022-07-29T13:17:55;28.60;99.90
31575;DHT22;18182;1.328;103.810;2022-07-29T13:20:23;28.60;99.90
31575;DHT22;18182;1.328;103.810;2022-07-29T13:22:50;28.60;99.90
31575;DHT22;18182;1.328;103.810;2022-07-29T13:25:23;28.60;99.90
31575;DHT22;18182;1.328;103.810;2022-07-29T13:27:49;28.60;99.90
31575;DHT22;18182;1.328;103.810;2022-07-29T13:30:15;28.50;99.90
31575;DHT22;18182;1.328;103.810;2022-07-29T13:32:42;28.60;99.90
31575;DHT22;18182;1.328;103.810;2022-07-29T13:35:08;28.50;99.90
31575;DHT22;18182;1.328;103.810;2022-07-29T13:37:34;28.50;99.90
31575;DHT22;18182;1.328;103.810;2022-07-29T13:40:04;28.40;99.90
31575;DHT22;18182;1.328;103.810;2022-07-29T13:42:31;28.50;99.90
31575;DHT22;18182;1.328;103.810;2022-07-29T13:44:57;28.50;99.90
31575;DHT22;18182;1.328;103.810;2022-07-29T13:47:24;28.50;99.90
31575;DHT22;18182;1.328;103.810;2022-07-29T13:49:50;28.50;99.90
31575;DHT22;18182;1.328;103.810;2022-07-29T13:52:16;28.40;99.90
31575;DHT22;18182;1.328;103.810;2022-07-29T13:54:43;28.40;99.90
31575;DHT22;18182;1.328;103.810;2022-07-29T13:57:09;28.30;99.90
31575;DHT22;18182;1.328;103.810;2022-07-29T13:59:39;28.30;99.90
31575;DHT22;18182;1.328;103.810;2022-07-29T14:02:05;28.30;99.90
31575;DHT22;18182;1.328;103.810;2022-07-29T14:04:32;28.30;99.90
31575;DHT22;18182;1.328;103.810;2022-07-29T14:06:58;28.30;99.90
31575;DHT22;18182;1.328;103.810;2022-07-29T14:09:25;28.30;99.90
31575;DHT22;18182;1.328;103.810;2022-07-29T14:11:51;28.30;99.90
31575;DHT22;18182;1.328;103.810;2022-07-29T14:14:19;28.30;99.90
31575;DHT22;18182;1.328;103.810;2022-07-29T14:16:45;28.40;99.90
31575;DHT22;18182;1.328;103.810;2022-07-29T14:19:11;28.30;99.90
31575;DHT22;18182;1.328;103.810;2022-07-29T14:21:38;28.30;99.90
31575;DHT22;18182;1.328;103.810;2022-07-29T14:24:04;28.30;99.90
31575;DHT22;18182;1.328;103.810;2022-07-29T14:26:30;28.20;99.90
31575;DHT22;18182;1.328;103.810;2022-07-29T14:28:56;28.20;99.90
31575;DHT22;18182;1.328;103.810;2022-07-29T14:31:22;28.20;99.90
31575;DHT22;18182;1.328;103.810;2022-07-29T14:33:49;28.20;99.90
31575;DHT22;18182;1.328;103.810;2022-07-29T14:36:15;28.10;99.90
31575;DHT22;18182;1.328;103.810;2022-07-29T14:38:41;28.20;99.90
31575;DHT22;18182;1.328;103.810;2022-07-29T14:41:07;28.20;99.90
31575;DHT22;18182;1.328;103.810;2022-07-29T14:43:34;28.30;99.90
31575;DHT22;18182;1.328;103.810;2022-07-29T14:46:01;28.30;99.90
31575;DHT22;18182;1.328;103.810;2022-07-29T14:48:27;28.20;99.90
31575;DHT22;18182;1.328;103.810;2022-07-29T14:50:53;28.20;99.90
31575;DHT22;18182;1.328;103.810;2022-07-29T14:53:21;28.30;99.90
31575;DHT22;18182;1.328;103.810;2022-07-29T14:55:48;28.20;99.90
31575;DHT22;18182;1.328;103.810;2022-07-29T14:58:14;28.20;99.90
31575;DHT22;18182;1.328;103.810;2022-07-29T15:00:40;28.20;99.90
31575;DHT22;18182;1.328;103.810;2022-07-29T15:03:06;28.30;99.90
31575;DHT22;18182;1.328;103.810;2022-07-29T15:05:35;28.30;99.90
31575;DHT22;18182;1.328;103.810;2022-07-29T15:08:02;28.30;99.90
31575;DHT22;18182;1.328;103.810;2022-07-29T15:10:28;28.30;99.90
31575;DHT22;18182;1.328;103.810;2022-07-29T15:12:55;28.40;99.90
31575;DHT22;18182;1.328;103.810;2022-07-29T15:15:21;28.40;99.90
31575;DHT22;18182;1.328;103.810;2022-07-29T15:17:48;28.30;99.90
31575;DHT22;18182;1.328;103.810;2022-07-29T15:20:14;28.30;99.90
31575;DHT22;18182;1.328;103.810;2022-07-29T15:22:40;28.20;99.90
31575;DHT22;18182;1.328;103.810;2022-07-29T15:25:09;28.10;99.90
31575;DHT22;18182;1.328;103.810;2022-07-29T15:27:35;28.10;99.90
31575;DHT22;18182;1.328;103.810;2022-07-29T15:30:02;28.10;99.90
31575;DHT22;18182;1.328;103.810;2022-07-29T15:32:28;28.00;99.90
31575;DHT22;18182;1.328;103.810;2022-07-29T15:34:54;28.00;99.90
31575;DHT22;18182;1.328;103.810;2022-07-29T15:37:20;28.00;99.90
31575;DHT22;18182;1.328;103.810;2022-07-29T15:39:47;28.00;99.90
31575;DHT22;18182;1.328;103.810;2022-07-29T15:42:13;28.00;99.90
31575;DHT22;18182;1.328;103.810;2022-07-29T15:44:39;28.00;99.90
31575;DHT22;18182;1.328;103.810;2022-07-29T15:47:05;27.90;99.90
31575;DHT22;18182;1.328;103.810;2022-07-29T15:49:40;27.90;99.90
31575;DHT22;18182;1.328;103.810;2022-07-29T15:52:08;27.90;99.90
31575;DHT22;18182;1.328;103.810;2022-07-29T15:54:35;27.90;99.90
31575;DHT22;18182;1.328;103.810;2022-07-29T15:57:03;28.00;99.90
31575;DHT22;18182;1.328;103.810;2022-07-29T15:59:30;27.90;99.90
31575;DHT22;18182;1.328;103.810;2022-07-29T16:01:56;27.90;99.90
31575;DHT22;18182;1.328;103.810;2022-07-29T16:04:22;27.90;99.90
31575;DHT22;18182;1.328;103.810;2022-07-29T16:06:49;27.90;99.90
31575;DHT22;18182;1.328;103.810;2022-07-29T16:09:15;27.90;99.90
31575;DHT22;18182;1.328;103.810;2022-07-29T16:11:41;27.90;99.90